sensor_id;sensor_type;location;lat;lon;timestamp;temperature;humidity
2721;DHT22;1368;49.484;11.112;2023-11-19T00:00:06;6.60;99.90
2721;DHT22;1368;49.484;11.112;2023-11-19T00:02:38;6.50;99.90
2721;DHT22;1368;49.484;11.112;2023-11-19T00:05:04;6.60;99.90
2721;DHT22;1368;49.484;11.112;2023-11-19T00:07:30;6.40;99.90
2721;DHT22;1368;49.484;11.112;2023-11-19T00:09:55;6.30;99.90
2721;DHT22;1368;49.484;11.112;2023-11-19T00:12:21;6.30;99.90
2721;DHT22;1368;49.484;11.112;2023-11-19T00:14:47;6.10;99.90
2721;DHT22;1368;49.484;11.112;2023-11-19T00:17:13;6.10;99.90
2721;DHT22;1368;49.484;11.112;2023-11-19T00:19:38;6.20;99.90
2721;DHT22;1368;49.484;11.112;2023-11-19T00:22:04;6.20;99.90
2721;DHT22;1368;49.484;11.112;2023-11-19T00:24:30;6.30;99.90
2721;DHT22;1368;49.484;11.112;2023-11-19T00:26:56;6.40;99.90
2721;DHT22;1368;49.484;11.112;2023-11-19T00:29:22;6.50;99.90
2721;DHT22;1368;49.484;11.112;2023-11-19T00:31:47;6.50;99.90
2721;DHT22;1368;49.484;11.112;2023-11-19T00:34:13;6.60;99.90
2721;DHT22;1368;49.484;11.112;2023-11-19T00:36:39;6.60;99.90
2721;DHT22;1368;49.484;11.112;2023-11-19T00:39:04;6.60;99.90
2721;DHT22;1368;49.484;11.112;2023-11-19T00:41:31;6.50;99.90
2721;DHT22;1368;49.484;11.112;2023-11-19T00:43:56;6.60;99.90
2721;DHT22;1368;49.484;11.112;2023-11-19T00:46:22;6.80;99.90
2721;DHT22;1368;49.484;11.112;2023-11-19T00:48:47;6.80;99.90
2721;DHT22;1368;49.484;11.112;2023-11-19T00:51:13;6.80;99.90
2721;DHT22;1368;49.484;11.112;2023-11-19T00:53:39;6.50;99.90
2721;DHT22;1368;49.484;11.112;2023-11-19T00:56:05;6.50;99.90
2721;DHT22;1368;49.484;11.112;2023-11-19T00:58:31;6.60;99.90
2721;DHT22;1368;49.484;11.112;2023-11-19T01:00:57;6.70;99.90
2721;DHT22;1368;49.484;11.112;2023-11-19T01:03:23;6.70;99.90
2721;DHT22;1368;49.484;11.112;2023-11-19T01:05:48;6.50;99.90
2721;DHT22;1368;49.484;11.112;2023-11-19T01:08:14;6.40;99.90
2721;DHT22;1368;49.484;11.112;2023-11-19T01:10:41;6.40;99.90
2721;DHT22;1368;49.484;11.112;2023-11-19T01:13:06;6.60;99.90
2721;DHT22;1368;49.484;11.112;2023-11-19T01:15:32;7.10;99.90
2721;DHT22;1368;49.484;11.112;2023-11-19T01:17:58;7.00;99.90
2721;DHT22;1368;49.484;11.112;2023-11-19T01:20:23;6.90;99.90
2721;DHT22;1368;49.484;11.112;2023-11-19T01:22:50;6.90;99.90
2721;DHT22;1368;49.484;11.112;2023-11-19T01:25:15;6.90;99.90
2721;DHT22;1368;49.484;11.112;2023-11-19T01:27:41;6.80;99.90
2721;DHT22;1368;49.484;11.112;2023-11-19T01:30:09;6.60;99.90
2721;DHT22;1368;49.484;11.112;2023-11-19T01:32:38;6.70;99.90
2721;DHT22;1368;49.484;11.112;2023-11-19T01:35:04;6.70;99.90
2721;DHT22;1368;49.484;11.112;2023-11-19T01:37:29;6.80;99.90
2721;DHT22;1368;49.484;11.112;2023-11-19T01:39:56;7.00;99.90
2721;DHT22;1368;49.484;11.112;2023-11-19T01:42:22;7.40;99.90
2721;DHT22;1368;49.484;11.112;2023-11-19T01:45:00;7.40;99.90
2721;DHT22;1368;49.484;11.112;2023-11-19T01:47:27;7.20;99.90
2721;DHT22;1368;49.484;11.112;2023-11-19T01:49:54;7.20;99.90
2721;DHT22;1368;49.484;11.112;2023-11-19T01:52:20;7.20;99.90
2721;DHT22;1368;49.484;11.112;2023-11-19T01:54:46;7.10;99.90
2721;DHT22;1368;49.484;11.112;2023-11-19T01:57:12;7.00;99.90
2721;DHT22;1368;49.484;11.112;2023-11-19T01:59:38;7.00;99.90
2721;DHT22;1368;49.484;11.112;2023-11-19T02:02:05;7.10;99.90
2721;DHT22;1368;49.484;11.112;2023-11-19T02:04:31;7.10;99.90
2721;DHT22;1368;49.484;11.112;2023-11-19T02:06:57;7.10;99.90
2721;DHT22;1368;49.484;11.112;2023-11-19T02:09:23;7.10;99.90
2721;DHT22;1368;49.484;11.112;2023-11-19T02:11:49;7.10;99.90
2721;DHT22;1368;49.484;11.112;2023-11-19T02:14:17;7.20;99.90
2721;DHT22;1368;49.484;11.112;2023-11-19T02:16:43;7.00;99.90
2721;DHT22;1368;49.484;11.112;2023-11-19T02:19:09;6.80;99.90
2721;DHT22;1368;49.484;11.112;2023-11-19T02:21:36;6.80;99.90
2721;DHT22;1368;49.484;11.112;2023-11-19T02:24:06;6.80;99.90
2721;DHT22;1368;49.484;11.112;2023-11-19T02:26:59;6.80;99.90
2721;DHT22;1368;49.484;11.112;2023-11-19T02:29:26;7.10;99.90
2721;DHT22;1368;49.484;11.112;2023-11-19T02:31:52;7.40;99.90
2721;DHT22;1368;49.484;11.112;2023-11-19T02:34:20;7.60;99.90
2721;DHT22;1368;49.484;11.112;2023-11-19T02:36:47;7.30;99.90
2721;DHT22;1368;49.484;11.112;2023-11-19T02:39:12;7.30;99.90
2721;DHT22;1368;49.484;11.112;2023-11-19T02:41:38;7.30;99.90
2721;DHT22;1368;49.484;11.112;2023-11-19T02:44:06;7.30;99.90
2721;DHT22;1368;49.484;11.112;2023-11-19T02:46:32;7.40;99.90
2721;DHT22;1368;49.484;11.112;2023-11-19T02:48:57;7.50;99.90
2721;DHT22;1368;49.484;11.112;2023-11-19T02:51:23;7.70;99.90
2721;DHT22;1368;49.484;11.112;2023-11-19T02:53:48;7.90;99.90
2721;DHT22;1368;49.484;11.112;2023-11-19T02:56:14;8.10;99.90
2721;DHT22;1368;49.484;11.112;2023-11-19T02:58:51;8.20;99.90
2721;DHT22;1368;49.484;11.112;2023-11-19T03:01:26;8.30;99.90
2721;DHT22;1368;49.484;11.112;2023-11-19T03:03:56;8.10;99.90
2721;DHT22;1368;49.484;11.112;2023-11-19T03:06:22;8.20;99.90
2721;DHT22;1368;49.484;11.112;2023-11-19T03:08:48;7.80;99.90
2721;DHT22;1368;49.484;11.112;2023-11-19T03:11:13;7.80;99.90
2721;DHT22;1368;49.484;11.112;2023-11-19T03:13:39;7.50;99.90
2721;DHT22;1368;49.484;11.112;2023-11-19T03:16:05;7.60;99.90
2721;DHT22;1368;49.484;11.112;2023-11-19T03:18:30;7.80;99.90
2721;DHT22;1368;49.484;11.112;2023-11-19T03:20:56;7.90;99.90
2721;DHT22;1368;49.484;11.112;2023-11-19T03:23:24;8.20;99.90
2721;DHT22;1368;49.484;11.112;2023-11-19T03:25:53;8.30;99.90
2721;DHT22;1368;49.484;11.112;2023-11-19T03:28:18;8.10;99.90
2721;DHT22;1368;49.484;11.112;2023-11-19T03:30:44;8.10;99.90
2721;DHT22;1368;49.484;11.112;2023-11-19T03:33:09;8.10;99.90
2721;DHT22;1368;49.484;11.112;2023-11-19T03:35:35;8.00;99.90
2721;DHT22;1368;49.484;11.112;2023-11-19T03:38:00;7.90;99.90
2721;DHT22;1368;49.484;11.112;2023-11-19T03:40:26;7.80;99.90
2721;DHT22;1368;49.484;11.112;2023-11-19T03:42:52;7.60;99.90
2721;DHT22;1368;49.484;11.112;2023-11-19T03:45:17;7.50;99.90
2721;DHT22;1368;49.484;11.112;2023-11-19T03:47:43;7.60;99.90
2721;DHT22;1368;49.484;11.112;2023-11-19T03:50:09;7.40;99.90
2721;DHT22;1368;49.484;11.112;2023-11-19T03:52:35;7.10;99.90
2721;DHT22;1368;49.484;11.112;2023-11-19T03:55:01;7.00;99.90
2721;DHT22;1368;49.484;11.112;2023-11-19T03:57:27;7.00;99.90
2721;DHT22;1368;49.484;11.112;2023-11-19T03:59:53;6.90;99.90
2721;DHT22;1368;49.484;11.112;2023-11-19T04:02:20;6.90;99.90
2721;DHT22;1368;49.484;11.112;2023-11-19T04:04:46;7.00;99.90
2721;DHT22;1368;49.484;11.112;2023-11-19T04:07:12;7.40;99.90
2721;DHT22;1368;49.484;11.112;2023-11-19T04:09:37;8.20;99.90
2721;DHT22;1368;49.484;11.112;2023-11-19T04:12:03;7.70;99.90
2721;DHT22;1368;49.484;11.112;2023-11-19T04:14:29;7.70;99.90
2721;DHT22;1368;49.484;11.112;2023-11-19T04:16:55;7.70;99.90
2721;DHT22;1368;49.484;11.112;2023-11-19T04:19:21;7.70;99.90
2721;DHT22;1368;49.484;11.112;2023-11-19T04:21:47;8.00;99.90
2721;DHT22;1368;49.484;11.112;2023-11-19T04:24:13;8.00;99.90
2721;DHT22;1368;49.484;11.112;2023-11-19T04:26:43;7.80;99.90
2721;DHT22;1368;49.484;11.112;2023-11-19T04:29:12;8.10;99.90
2721;DHT22;1368;49.484;11.112;2023-11-19T04:31:38;8.40;99.90
2721;DHT22;1368;49.484;11.112;2023-11-19T04:34:03;8.30;99.90
2721;DHT22;1368;49.484;11.112;2023-11-19T04:36:29;8.40;99.90
2721;DHT22;1368;49.484;11.112;2023-11-19T04:38:55;8.70;99.90
2721;DHT22;1368;49.484;11.112;2023-11-19T04:41:21;8.90;99.90
2721;DHT22;1368;49.484;11.112;2023-11-19T04:43:46;9.10;99.90
2721;DHT22;1368;49.484;11.112;2023-11-19T04:46:12;9.00;99.90
2721;DHT22;1368;49.484;11.112;2023-11-19T04:48:38;9.00;99.90
2721;DHT22;1368;49.484;11.112;2023-11-19T04:51:06;9.20;99.90
2721;DHT22;1368;49.484;11.112;2023-11-19T04:53:32;9.10;99.90
2721;DHT22;1368;49.484;11.112;2023-11-19T04:55:58;9.00;99.90
2721;DHT22;1368;49.484;11.112;2023-11-19T04:58:24;9.10;99.90
2721;DHT22;1368;49.484;11.112;2023-11-19T05:00:50;9.00;99.90
2721;DHT22;1368;49.484;11.112;2023-11-19T05:03:15;9.10;99.90
2721;DHT22;1368;49.484;11.112;2023-11-19T05:05:41;9.00;99.90
2721;DHT22;1368;49.484;11.112;2023-11-19T05:08:06;8.80;99.90
2721;DHT22;1368;49.484;11.112;2023-11-19T05:10:32;8.70;99.90
2721;DHT22;1368;49.484;11.112;2023-11-19T05:12:57;8.60;99.90
2721;DHT22;1368;49.484;11.112;2023-11-19T05:15:23;8.70;99.90
2721;DHT22;1368;49.484;11.112;2023-11-19T05:17:49;8.80;99.90
2721;DHT22;1368;49.484;11.112;2023-11-19T05:20:14;8.80;99.90
2721;DHT22;1368;49.484;11.112;2023-11-19T05:22:41;8.80;99.90
2721;DHT22;1368;49.484;11.112;2023-11-19T05:25:07;8.80;99.90
2721;DHT22;1368;49.484;11.112;2023-11-19T05:27:34;8.80;99.90
2721;DHT22;1368;49.484;11.112;2023-11-19T05:30:01;8.90;99.90
2721;DHT22;1368;49.484;11.112;2023-11-19T05:32:26;8.90;99.90
2721;DHT22;1368;49.484;11.112;2023-11-19T05:34:52;8.90;99.90
2721;DHT22;1368;49.484;11.112;2023-11-19T05:37:18;9.10;99.90
2721;DHT22;1368;49.484;11.112;2023-11-19T05:39:45;9.10;99.90
2721;DHT22;1368;49.484;11.112;2023-11-19T05:42:10;9.20;99.90
2721;DHT22;1368;49.484;11.112;2023-11-19T05:44:36;9.00;99.90
2721;DHT22;1368;49.484;11.112;2023-11-19T05:47:03;9.10;99.90
2721;DHT22;1368;49.484;11.112;2023-11-19T05:49:29;9.40;99.90
2721;DHT22;1368;49.484;11.112;2023-11-19T05:51:54;9.30;99.90
2721;DHT22;1368;49.484;11.112;2023-11-19T05:54:21;9.10;99.90
2721;DHT22;1368;49.484;11.112;2023-11-19T05:56:50;8.90;99.90
2721;DHT22;1368;49.484;11.112;2023-11-19T05:59:15;9.20;99.90
2721;DHT22;1368;49.484;11.112;2023-11-19T06:01:43;9.20;99.90
2721;DHT22;1368;49.484;11.112;2023-11-19T06:04:09;9.20;99.90
2721;DHT22;1368;49.484;11.112;2023-11-19T06:06:35;9.40;99.90
2721;DHT22;1368;49.484;11.112;2023-11-19T06:09:01;9.70;99.90
2721;DHT22;1368;49.484;11.112;2023-11-19T06:11:27;9.90;99.90
2721;DHT22;1368;49.484;11.112;2023-11-19T06:13:53;10.10;99.90
2721;DHT22;1368;49.484;11.112;2023-11-19T06:16:19;10.20;99.90
2721;DHT22;1368;49.484;11.112;2023-11-19T06:18:44;10.40;99.90
2721;DHT22;1368;49.484;11.112;2023-11-19T06:21:11;10.40;99.90
2721;DHT22;1368;49.484;11.112;2023-11-19T06:23:36;10.40;99.90
2721;DHT22;1368;49.484;11.112;2023-11-19T06:26:02;10.30;99.90
2721;DHT22;1368;49.484;11.112;2023-11-19T06:28:28;10.40;99.90
2721;DHT22;1368;49.484;11.112;2023-11-19T06:30:54;10.10;99.90
2721;DHT22;1368;49.484;11.112;2023-11-19T06:33:19;10.30;99.90
2721;DHT22;1368;49.484;11.112;2023-11-19T06:35:45;10.30;99.90
2721;DHT22;1368;49.484;11.112;2023-11-19T06:38:11;10.50;99.90
2721;DHT22;1368;49.484;11.112;2023-11-19T06:40:36;10.40;99.90
2721;DHT22;1368;49.484;11.112;2023-11-19T06:43:03;10.30;99.90
2721;DHT22;1368;49.484;11.112;2023-11-19T06:45:33;10.50;99.90
2721;DHT22;1368;49.484;11.112;2023-11-19T06:48:01;11.20;99.90
2721;DHT22;1368;49.484;11.112;2023-11-19T06:50:28;10.10;99.90
2721;DHT22;1368;49.484;11.112;2023-11-19T06:52:54;10.30;99.90
2721;DHT22;1368;49.484;11.112;2023-11-19T06:55:19;10.30;99.90
2721;DHT22;1368;49.484;11.112;2023-11-19T06:57:45;10.10;99.90
2721;DHT22;1368;49.484;11.112;2023-11-19T07:00:11;10.30;99.90
2721;DHT22;1368;49.484;11.112;2023-11-19T07:02:36;10.40;99.90
2721;DHT22;1368;49.484;11.112;2023-11-19T07:05:02;10.50;99.90
2721;DHT22;1368;49.484;11.112;2023-11-19T07:07:33;10.50;99.90
2721;DHT22;1368;49.484;11.112;2023-11-19T07:09:59;10.70;99.90
2721;DHT22;1368;49.484;11.112;2023-11-19T07:12:24;10.70;99.90
2721;DHT22;1368;49.484;11.112;2023-11-19T07:14:52;10.40;99.90
2721;DHT22;1368;49.484;11.112;2023-11-19T07:17:18;10.20;99.90
2721;DHT22;1368;49.484;11.112;2023-11-19T07:19:46;10.40;99.90
2721;DHT22;1368;49.484;11.112;2023-11-19T07:22:11;10.50;99.90
2721;DHT22;1368;49.484;11.112;2023-11-19T07:24:39;10.60;99.90
2721;DHT22;1368;49.484;11.112;2023-11-19T07:27:04;10.90;99.90
2721;DHT22;1368;49.484;11.112;2023-11-19T07:29:30;11.00;99.90
2721;DHT22;1368;49.484;11.112;2023-11-19T07:31:57;11.00;99.90
2721;DHT22;1368;49.484;11.112;2023-11-19T07:34:22;11.20;99.90
2721;DHT22;1368;49.484;11.112;2023-11-19T07:36:48;11.30;99.90
2721;DHT22;1368;49.484;11.112;2023-11-19T07:39:14;11.30;99.90
2721;DHT22;1368;49.484;11.112;2023-11-19T07:41:39;11.40;99.90
2721;DHT22;1368;49.484;11.112;2023-11-19T07:44:05;11.90;99.90
2721;DHT22;1368;49.484;11.112;2023-11-19T07:46:31;11.30;99.90
2721;DHT22;1368;49.484;11.112;2023-11-19T07:48:57;11.40;99.90
2721;DHT22;1368;49.484;11.112;2023-11-19T07:51:23;11.50;99.90
2721;DHT22;1368;49.484;11.112;2023-11-19T07:53:48;11.20;99.90
2721;DHT22;1368;49.484;11.112;2023-11-19T07:56:14;10.90;99.90
2721;DHT22;1368;49.484;11.112;2023-11-19T07:58:40;11.10;99.90
2721;DHT22;1368;49.484;11.112;2023-11-19T08:01:06;11.30;99.90
2721;DHT22;1368;49.484;11.112;2023-11-19T08:03:32;11.50;99.90
2721;DHT22;1368;49.484;11.112;2023-11-19T08:05:59;11.80;99.90
2721;DHT22;1368;49.484;11.112;2023-11-19T08:08:25;11.80;99.90
2721;DHT22;1368;49.484;11.112;2023-11-19T08:10:51;11.60;99.90
2721;DHT22;1368;49.484;11.112;2023-11-19T08:13:18;11.20;99.90
2721;DHT22;1368;49.484;11.112;2023-11-19T08:15:44;11.30;99.90
2721;DHT22;1368;49.484;11.112;2023-11-19T08:18:10;11.30;99.90
2721;DHT22;1368;49.484;11.112;2023-11-19T08:20:35;11.50;99.90
2721;DHT22;1368;49.484;11.112;2023-11-19T08:23:02;11.60;99.90
2721;DHT22;1368;49.484;11.112;2023-11-19T08:25:29;11.80;99.90
2721;DHT22;1368;49.484;11.112;2023-11-19T08:27:54;11.80;99.90
2721;DHT22;1368;49.484;11.112;2023-11-19T08:30:20;11.90;99.90
2721;DHT22;1368;49.484;11.112;2023-11-19T08:32:45;12.10;99.90
2721;DHT22;1368;49.484;11.112;2023-11-19T08:35:11;12.10;99.90
2721;DHT22;1368;49.484;11.112;2023-11-19T08:37:36;12.10;99.90
2721;DHT22;1368;49.484;11.112;2023-11-19T08:40:03;12.20;99.90
2721;DHT22;1368;49.484;11.112;2023-11-19T08:42:30;12.30;99.90
2721;DHT22;1368;49.484;11.112;2023-11-19T08:44:55;12.40;99.90
2721;DHT22;1368;49.484;11.112;2023-11-19T08:47:21;12.50;99.90
2721;DHT22;1368;49.484;11.112;2023-11-19T08:49:50;12.60;99.90
2721;DHT22;1368;49.484;11.112;2023-11-19T08:52:15;12.60;99.90
2721;DHT22;1368;49.484;11.112;2023-11-19T08:54:42;12.60;99.90
2721;DHT22;1368;49.484;11.112;2023-11-19T08:57:08;12.60;99.90
2721;DHT22;1368;49.484;11.112;2023-11-19T08:59:34;13.00;99.90
2721;DHT22;1368;49.484;11.112;2023-11-19T09:01:59;12.70;99.90
2721;DHT22;1368;49.484;11.112;2023-11-19T09:04:25;12.80;99.90
2721;DHT22;1368;49.484;11.112;2023-11-19T09:06:51;12.90;99.90
2721;DHT22;1368;49.484;11.112;2023-11-19T09:09:16;13.40;99.90
2721;DHT22;1368;49.484;11.112;2023-11-19T09:11:42;13.10;99.90
2721;DHT22;1368;49.484;11.112;2023-11-19T09:14:08;13.00;99.90
2721;DHT22;1368;49.484;11.112;2023-11-19T09:16:33;13.20;99.90
2721;DHT22;1368;49.484;11.112;2023-11-19T09:18:59;13.40;99.90
2721;DHT22;1368;49.484;11.112;2023-11-19T09:21:26;14.00;99.90
2721;DHT22;1368;49.484;11.112;2023-11-19T09:23:51;13.40;99.90
2721;DHT22;1368;49.484;11.112;2023-11-19T09:26:19;13.40;99.90
2721;DHT22;1368;49.484;11.112;2023-11-19T09:28:44;13.30;99.90
2721;DHT22;1368;49.484;11.112;2023-11-19T09:31:14;13.90;99.90
2721;DHT22;1368;49.484;11.112;2023-11-19T09:33:40;13.60;99.90
2721;DHT22;1368;49.484;11.112;2023-11-19T09:36:08;14.00;99.90
2721;DHT22;1368;49.484;11.112;2023-11-19T09:38:33;13.80;99.90
2721;DHT22;1368;49.484;11.112;2023-11-19T09:40:59;14.00;99.90
2721;DHT22;1368;49.484;11.112;2023-11-19T09:43:27;14.20;99.90
2721;DHT22;1368;49.484;11.112;2023-11-19T09:45:55;14.80;99.90
2721;DHT22;1368;49.484;11.112;2023-11-19T09:48:21;14.20;99.90
2721;DHT22;1368;49.484;11.112;2023-11-19T09:50:50;14.20;99.90
2721;DHT22;1368;49.484;11.112;2023-11-19T09:53:17;14.30;99.90
2721;DHT22;1368;49.484;11.112;2023-11-19T09:55:43;14.20;99.90
2721;DHT22;1368;49.484;11.112;2023-11-19T09:58:12;14.20;99.90
2721;DHT22;1368;49.484;11.112;2023-11-19T10:00:39;13.80;99.90
2721;DHT22;1368;49.484;11.112;2023-11-19T10:03:07;14.10;99.90
2721;DHT22;1368;49.484;11.112;2023-11-19T10:05:34;13.50;99.90
2721;DHT22;1368;49.484;11.112;2023-11-19T10:08:01;13.50;99.90
2721;DHT22;1368;49.484;11.112;2023-11-19T10:10:28;13.50;99.90
2721;DHT22;1368;49.484;11.112;2023-11-19T10:12:55;13.60;99.90
2721;DHT22;1368;49.484;11.112;2023-11-19T10:15:22;13.80;99.90
2721;DHT22;1368;49.484;11.112;2023-11-19T10:17:59;13.90;99.90
2721;DHT22;1368;49.484;11.112;2023-11-19T10:20:24;14.10;99.90
2721;DHT22;1368;49.484;11.112;2023-11-19T10:22:55;14.10;99.90
2721;DHT22;1368;49.484;11.112;2023-11-19T10:27:48;14.50;99.90
2721;DHT22;1368;49.484;11.112;2023-11-19T10:30:21;15.00;99.90
2721;DHT22;1368;49.484;11.112;2023-11-19T10:35:35;15.20;99.90
2721;DHT22;1368;49.484;11.112;2023-11-19T10:38:14;15.10;99.90
2721;DHT22;1368;49.484;11.112;2023-11-19T10:40:43;15.00;99.90
2721;DHT22;1368;49.484;11.112;2023-11-19T10:43:09;14.80;99.90
2721;DHT22;1368;49.484;11.112;2023-11-19T10:45:38;14.50;99.90
2721;DHT22;1368;49.484;11.112;2023-11-19T10:48:04;14.50;99.90
2721;DHT22;1368;49.484;11.112;2023-11-19T10:50:33;14.50;99.90
2721;DHT22;1368;49.484;11.112;2023-11-19T10:52:59;14.20;99.90
2721;DHT22;1368;49.484;11.112;2023-11-19T10:55:29;14.10;99.90
2721;DHT22;1368;49.484;11.112;2023-11-19T10:58:16;14.00;99.90
2721;DHT22;1368;49.484;11.112;2023-11-19T11:00:59;13.90;99.90
2721;DHT22;1368;49.484;11.112;2023-11-19T11:03:31;14.20;99.90
2721;DHT22;1368;49.484;11.112;2023-11-19T11:06:02;14.40;99.90
2721;DHT22;1368;49.484;11.112;2023-11-19T11:08:30;14.70;99.90
2721;DHT22;1368;49.484;11.112;2023-11-19T11:10:56;14.90;99.90
2721;DHT22;1368;49.484;11.112;2023-11-19T11:13:24;15.30;99.90
2721;DHT22;1368;49.484;11.112;2023-11-19T11:15:50;15.70;99.90
2721;DHT22;1368;49.484;11.112;2023-11-19T11:18:17;16.00;99.90
2721;DHT22;1368;49.484;11.112;2023-11-19T11:20:44;16.00;99.90
2721;DHT22;1368;49.484;11.112;2023-11-19T11:28:47;16.00;99.90
2721;DHT22;1368;49.484;11.112;2023-11-19T11:31:30;15.90;99.90
2721;DHT22;1368;49.484;11.112;2023-11-19T11:39:49;16.30;99.90
2721;DHT22;1368;49.484;11.112;2023-11-19T11:42:39;16.10;99.90
2721;DHT22;1368;49.484;11.112;2023-11-19T11:50:09;15.50;99.90
2721;DHT22;1368;49.484;11.112;2023-11-19T11:57:57;15.40;99.90
2721;DHT22;1368;49.484;11.112;2023-11-19T12:02:59;15.70;99.90
2721;DHT22;1368;49.484;11.112;2023-11-19T12:05:26;15.10;99.90
2721;DHT22;1368;49.484;11.112;2023-11-19T12:07:55;15.40;99.90
2721;DHT22;1368;49.484;11.112;2023-11-19T12:10:24;14.80;99.90
2721;DHT22;1368;49.484;11.112;2023-11-19T12:12:52;14.80;99.90
2721;DHT22;1368;49.484;11.112;2023-11-19T12:15:18;15.20;99.90
2721;DHT22;1368;49.484;11.112;2023-11-19T12:17:49;14.80;99.90
2721;DHT22;1368;49.484;11.112;2023-11-19T12:20:16;14.80;99.90
2721;DHT22;1368;49.484;11.112;2023-11-19T12:22:42;15.00;99.90
2721;DHT22;1368;49.484;11.112;2023-11-19T12:25:09;14.40;99.90
2721;DHT22;1368;49.484;11.112;2023-11-19T12:27:51;14.50;99.90
2721;DHT22;1368;49.484;11.112;2023-11-19T12:30:24;14.60;99.90
2721;DHT22;1368;49.484;11.112;2023-11-19T12:32:51;14.30;99.90
2721;DHT22;1368;49.484;11.112;2023-11-19T12:35:18;14.20;99.90
2721;DHT22;1368;49.484;11.112;2023-11-19T12:37:48;14.30;99.90
2721;DHT22;1368;49.484;11.112;2023-11-19T12:40:15;14.60;99.90
2721;DHT22;1368;49.484;11.112;2023-11-19T12:42:41;14.90;99.90
2721;DHT22;1368;49.484;11.112;2023-11-19T12:45:07;15.00;99.90
2721;DHT22;1368;49.484;11.112;2023-11-19T12:47:37;15.20;99.90
2721;DHT22;1368;49.484;11.112;2023-11-19T12:50:03;15.10;99.90
2721;DHT22;1368;49.484;11.112;2023-11-19T12:52:29;15.00;99.90
2721;DHT22;1368;49.484;11.112;2023-11-19T12:54:55;15.20;99.90
2721;DHT22;1368;49.484;11.112;2023-11-19T12:57:36;15.50;99.90
2721;DHT22;1368;49.484;11.112;2023-11-19T13:00:01;15.50;99.90
2721;DHT22;1368;49.484;11.112;2023-11-19T13:02:49;15.40;99.90
2721;DHT22;1368;49.484;11.112;2023-11-19T13:05:32;15.40;99.90
2721;DHT22;1368;49.484;11.112;2023-11-19T13:08:05;15.80;99.90
2721;DHT22;1368;49.484;11.112;2023-11-19T13:10:52;15.30;99.90
2721;DHT22;1368;49.484;11.112;2023-11-19T13:13:19;15.30;99.90
2721;DHT22;1368;49.484;11.112;2023-11-19T13:15:45;15.90;99.90
2721;DHT22;1368;49.484;11.112;2023-11-19T13:18:11;15.90;99.90
2721;DHT22;1368;49.484;11.112;2023-11-19T13:20:37;15.50;99.90
2721;DHT22;1368;49.484;11.112;2023-11-19T13:23:04;15.50;99.90
2721;DHT22;1368;49.484;11.112;2023-11-19T13:25:30;15.30;99.90
2721;DHT22;1368;49.484;11.112;2023-11-19T13:27:57;15.80;99.90
2721;DHT22;1368;49.484;11.112;2023-11-19T13:30:23;15.20;99.90
2721;DHT22;1368;49.484;11.112;2023-11-19T13:32:50;15.70;99.90
2721;DHT22;1368;49.484;11.112;2023-11-19T13:35:17;15.10;99.90
2721;DHT22;1368;49.484;11.112;2023-11-19T13:37:44;15.00;99.90
2721;DHT22;1368;49.484;11.112;2023-11-19T13:40:10;15.00;99.90
2721;DHT22;1368;49.484;11.112;2023-11-19T13:42:39;15.00;99.90
2721;DHT22;1368;49.484;11.112;2023-11-19T13:45:10;15.20;99.90
2721;DHT22;1368;49.484;11.112;2023-11-19T13:47:41;15.10;99.90
2721;DHT22;1368;49.484;11.112;2023-11-19T13:50:09;15.60;99.90
2721;DHT22;1368;49.484;11.112;2023-11-19T13:52:39;15.40;99.90
2721;DHT22;1368;49.484;11.112;2023-11-19T13:55:09;15.50;99.90
2721;DHT22;1368;49.484;11.112;2023-11-19T13:57:36;15.60;99.90
2721;DHT22;1368;49.484;11.112;2023-11-19T14:00:06;15.90;99.90
2721;DHT22;1368;49.484;11.112;2023-11-19T14:02:33;15.50;99.90
2721;DHT22;1368;49.484;11.112;2023-11-19T14:04:59;15.40;99.90
2721;DHT22;1368;49.484;11.112;2023-11-19T14:07:25;16.00;99.90
2721;DHT22;1368;49.484;11.112;2023-11-19T14:09:51;16.20;99.90
2721;DHT22;1368;49.484;11.112;2023-11-19T14:12:16;15.70;99.90
2721;DHT22;1368;49.484;11.112;2023-11-19T14:14:43;15.80;99.90
2721;DHT22;1368;49.484;11.112;2023-11-19T14:17:09;16.20;99.90
2721;DHT22;1368;49.484;11.112;2023-11-19T14:19:36;16.60;99.90
2721;DHT22;1368;49.484;11.112;2023-11-19T14:22:02;15.90;99.90
2721;DHT22;1368;49.484;11.112;2023-11-19T14:24:27;16.10;99.90
2721;DHT22;1368;49.484;11.112;2023-11-19T14:27:03;15.50;99.90
2721;DHT22;1368;49.484;11.112;2023-11-19T14:29:28;15.40;99.90
2721;DHT22;1368;49.484;11.112;2023-11-19T14:31:55;15.20;99.90
2721;DHT22;1368;49.484;11.112;2023-11-19T14:34:21;14.90;99.90
2721;DHT22;1368;49.484;11.112;2023-11-19T14:36:46;15.20;99.90
2721;DHT22;1368;49.484;11.112;2023-11-19T14:39:12;14.50;99.90
2721;DHT22;1368;49.484;11.112;2023-11-19T14:41:38;14.50;99.90
2721;DHT22;1368;49.484;11.112;2023-11-19T14:44:04;14.40;99.90
2721;DHT22;1368;49.484;11.112;2023-11-19T14:46:30;14.40;99.90
2721;DHT22;1368;49.484;11.112;2023-11-19T14:48:55;14.40;99.90
2721;DHT22;1368;49.484;11.112;2023-11-19T14:51:21;14.20;99.90
2721;DHT22;1368;49.484;11.112;2023-11-19T14:53:47;14.20;99.90
2721;DHT22;1368;49.484;11.112;2023-11-19T14:56:12;14.60;99.90
2721;DHT22;1368;49.484;11.112;2023-11-19T14:58:39;14.40;99.90
2721;DHT22;1368;49.484;11.112;2023-11-19T15:01:05;14.70;99.90
2721;DHT22;1368;49.484;11.112;2023-11-19T15:03:31;14.90;99.90
2721;DHT22;1368;49.484;11.112;2023-11-19T15:05:57;15.30;99.90
2721;DHT22;1368;49.484;11.112;2023-11-19T15:08:23;14.90;99.90
2721;DHT22;1368;49.484;11.112;2023-11-19T15:10:48;14.80;99.90
2721;DHT22;1368;49.484;11.112;2023-11-19T15:13:15;14.80;99.90
2721;DHT22;1368;49.484;11.112;2023-11-19T15:15:40;14.80;99.90
2721;DHT22;1368;49.484;11.112;2023-11-19T15:18:06;14.80;99.90
2721;DHT22;1368;49.484;11.112;2023-11-19T15:20:31;14.80;99.90
2721;DHT22;1368;49.484;11.112;2023-11-19T15:22:57;14.70;99.90
2721;DHT22;1368;49.484;11.112;2023-11-19T15:25:23;14.70;99.90
2721;DHT22;1368;49.484;11.112;2023-11-19T15:27:49;14.50;99.90
2721;DHT22;1368;49.484;11.112;2023-11-19T15:30:15;14.60;99.90
2721;DHT22;1368;49.484;11.112;2023-11-19T15:32:42;14.50;99.90
2721;DHT22;1368;49.484;11.112;2023-11-19T15:35:08;14.40;99.90
2721;DHT22;1368;49.484;11.112;2023-11-19T15:37:35;14.30;99.90
2721;DHT22;1368;49.484;11.112;2023-11-19T15:40:01;14.40;99.90
2721;DHT22;1368;49.484;11.112;2023-11-19T15:42:29;14.60;99.90
2721;DHT22;1368;49.484;11.112;2023-11-19T15:44:54;14.60;99.90
2721;DHT22;1368;49.484;11.112;2023-11-19T15:47:20;14.80;99.90
2721;DHT22;1368;49.484;11.112;2023-11-19T15:49:46;14.80;99.90
2721;DHT22;1368;49.484;11.112;2023-11-19T15:52:14;15.50;99.90
2721;DHT22;1368;49.484;11.112;2023-11-19T15:54:40;14.90;99.90
2721;DHT22;1368;49.484;11.112;2023-11-19T15:57:06;14.90;99.90
2721;DHT22;1368;49.484;11.112;2023-11-19T15:59:32;14.80;99.90
2721;DHT22;1368;49.484;11.112;2023-11-19T16:01:57;14.90;99.90
2721;DHT22;1368;49.484;11.112;2023-11-19T16:04:23;14.80;99.90
2721;DHT22;1368;49.484;11.112;2023-11-19T16:06:49;14.70;99.90
2721;DHT22;1368;49.484;11.112;2023-11-19T16:09:14;14.80;99.90
2721;DHT22;1368;49.484;11.112;2023-11-19T16:11:44;14.50;99.90
2721;DHT22;1368;49.484;11.112;2023-11-19T16:14:11;14.10;99.90
2721;DHT22;1368;49.484;11.112;2023-11-19T16:16:37;13.70;99.90
2721;DHT22;1368;49.484;11.112;2023-11-19T16:19:03;13.50;99.90